Time;durP1;ratioP1;P1;durP2;ratioP2;P2;SDS_P1;SDS_P2;PMS_P1;PMS_P2;Temp;Humidity;BMP_temperature;BMP_pressure;BME280_temperature;BME280_humidity;BME280_pressure;Samples;Min_cycle;Max_cycle;Signal;HPM_P1;HPM_P2
2021/10/05 00:01:09;;;;;;;;;;;;;;;29.09;19.25;95095.28;4994657;28;19921;-47
2021/10/05 00:03:36;;;;;;;;;;;;;;;29.09;19.30;95097.97;4996084;28;19917;-46
2021/10/05 00:06:03;;;;;;;;;;;;;;;29.51;18.78;95101.75;4995988;28;19918;-45
2021/10/05 00:08:30;;;;;;;;;;;;;;;29.42;18.95;95096.75;4994640;28;19920;-46
2021/10/05 00:10:56;;;;;;;;;;;;;;;29.06;19.35;95100.66;4995747;28;20276;-45
2021/10/05 00:13:23;;;;;;;;;;;;;;;29.23;19.24;95094.50;4978178;28;19914;-45
2021/10/05 00:15:50;;;;;;;;;;;;;;;29.14;19.13;95104.88;4995959;28;19918;-45
2021/10/05 00:18:17;;;;;;;;;;;;;;;29.48;18.67;95099.09;4995491;28;19925;-46
2021/10/05 00:20:44;;;;;;;;;;;;;;;29.54;18.65;95086.75;5006036;28;19913;-45
2021/10/05 00:23:10;;;;;;;;;;;;;;;29.23;19.05;95094.50;4995766;28;19978;-46
2021/10/05 00:25:38;;;;;;;;;;;;;;;28.94;19.22;95098.38;5008438;28;19929;-45
2021/10/05 00:28:06;;;;;;;;;;;;;;;29.37;18.85;95091.75;5001086;28;19914;-45
2021/10/05 00:30:33;;;;;;;;;;;;;;;29.15;19.01;95099.13;4995309;28;20348;-47
2021/10/05 00:33:00;;;;;;;;;;;;;;;28.97;19.12;95086.84;4995622;28;19920;-45
2021/10/05 00:35:28;;;;;;;;;;;;;;;29.02;19.23;95092.59;4995478;28;19928;-45
2021/10/05 00:37:55;;;;;;;;;;;;;;;28.71;19.39;95088.75;4995151;28;19914;-46
2021/10/05 00:40:22;;;;;;;;;;;;;;;28.89;19.29;95096.06;4994921;28;19921;-47
2021/10/05 00:42:49;;;;;;;;;;;;;;;29.09;19.08;95089.13;4995476;28;19918;-45
2021/10/05 00:45:16;;;;;;;;;;;;;;;29.16;19.22;95094.53;4995269;28;20301;-45
2021/10/05 00:47:43;;;;;;;;;;;;;;;29.22;19.00;95092.97;4995039;28;19929;-45
2021/10/05 00:50:09;;;;;;;;;;;;;;;29.34;19.08;95089.84;4998084;28;19925;-46
2021/10/05 00:52:36;;;;;;;;;;;;;;;28.94;19.42;95098.38;4995390;28;19922;-45
2021/10/05 00:55:03;;;;;;;;;;;;;;;29.07;18.95;95091.44;5003597;28;19921;-47
2021/10/05 00:57:30;;;;;;;;;;;;;;;28.60;19.63;95089.91;5005395;28;19914;-45
2021/10/05 00:59:57;;;;;;;;;;;;;;;28.88;19.28;95078.38;4994493;28;19918;-46
2021/10/05 01:02:24;;;;;;;;;;;;;;;28.67;19.58;95084.53;4976818;28;19922;-46
2021/10/05 01:04:51;;;;;;;;;;;;;;;28.77;19.69;95083.75;4975766;28;19917;-45
2021/10/05 01:07:19;;;;;;;;;;;;;;;28.45;19.67;95079.16;4981409;28;19913;-46
2021/10/05 01:09:46;;;;;;;;;;;;;;;28.32;20.24;95079.88;4995147;28;19917;-44
2021/10/05 01:12:13;;;;;;;;;;;;;;;28.45;20.08;95078.38;4994339;28;19929;-44
2021/10/05 01:14:40;;;;;;;;;;;;;;;28.90;19.22;95076.09;4995111;28;19929;-45
2021/10/05 01:17:07;;;;;;;;;;;;;;;28.54;19.77;95076.06;4994684;28;20280;-46
2021/10/05 01:19:34;;;;;;;;;;;;;;;28.90;19.30;95079.56;4996014;28;19948;-45
2021/10/05 01:22:01;;;;;;;;;;;;;;;28.49;19.78;95074.53;4997534;28;19981;-44
2021/10/05 01:24:27;;;;;;;;;;;;;;;28.74;19.60;95077.22;4997398;28;19926;-47
2021/10/05 01:26:55;;;;;;;;;;;;;;;28.71;19.73;95075.31;5011841;28;19921;-45
2021/10/05 01:29:22;;;;;;;;;;;;;;;28.76;19.89;95071.47;4994992;28;19913;-45
2021/10/05 01:31:50;;;;;;;;;;;;;;;28.77;19.59;95073.00;4994480;28;19925;-46
2021/10/05 01:34:19;;;;;;;;;;;;;;;28.80;19.65;95078.38;4994981;28;19937;-45
2021/10/05 01:36:46;;;;;;;;;;;;;;;28.55;19.78;95077.59;4994090;28;19921;-44
2021/10/05 01:39:24;;;;;;;;;;;;;;;28.71;19.58;95075.31;4998865;28;20217;-45
2021/10/05 01:41:51;;;;;;;;;;;;;;;28.56;19.77;95079.13;4998334;28;19913;-44
2021/10/05 01:44:18;;;;;;;;;;;;;;;28.49;19.86;95073.78;4998738;28;19921;-45
2021/10/05 01:46:45;;;;;;;;;;;;;;;28.51;19.56;95076.84;4998422;28;19925;-45
2021/10/05 01:49:13;;;;;;;;;;;;;;;28.44;19.87;95071.47;4998669;28;19921;-45
2021/10/05 01:51:40;;;;;;;;;;;;;;;28.46;19.71;95074.53;4983894;28;19929;-45
2021/10/05 01:54:07;;;;;;;;;;;;;;;28.14;19.88;95075.25;4998817;28;19925;-45
2021/10/05 01:56:34;;;;;;;;;;;;;;;28.08;19.90;95068.69;5015595;28;19917;-46
2021/10/05 01:59:01;;;;;;;;;;;;;;;27.98;20.26;95077.50;4979330;28;19929;-44
2021/10/05 02:01:28;;;;;;;;;;;;;;;28.17;20.10;95079.84;4980067;28;19918;-47
2021/10/05 02:03:55;;;;;;;;;;;;;;;28.28;19.62;95066.44;4998664;28;19921;-45
2021/10/05 02:06:24;;;;;;;;;;;;;;;28.30;19.56;95074.13;4998471;28;19914;-45
2021/10/05 02:08:51;;;;;;;;;;;;;;;28.23;19.83;95074.88;4998194;28;19925;-45
2021/10/05 02:11:18;;;;;;;;;;;;;;;27.86;20.16;95075.19;4998280;28;19925;-45
2021/10/05 02:13:45;;;;;;;;;;;;;;;28.41;19.60;95078.38;4997352;28;19913;-45
2021/10/05 02:16:12;;;;;;;;;;;;;;;28.21;19.47;95067.19;4998194;28;19924;-45
2021/10/05 02:18:38;;;;;;;;;;;;;;;27.92;20.03;95065.59;4997627;28;19917;-47
2021/10/05 02:21:05;;;;;;;;;;;;;;;28.28;19.61;95074.50;5011578;28;19914;-46
2021/10/05 02:26:18;;;;;;;;;;;;;;;28.00;19.83;95064.44;5012467;28;19917;-48
2021/10/05 02:28:45;;;;;;;;;;;;;;;27.79;19.98;95059.78;4998627;28;19918;-48
2021/10/05 02:31:11;;;;;;;;;;;;;;;28.34;19.33;95077.59;4996694;28;19921;-45
2021/10/05 02:33:38;;;;;;;;;;;;;;;28.01;19.61;95071.38;4997485;28;20244;-46
2021/10/05 02:36:05;;;;;;;;;;;;;;;28.04;19.36;95067.91;4996747;28;19918;-45
2021/10/05 02:38:32;;;;;;;;;;;;;;;27.57;20.60;95068.88;4997348;28;20261;-47
2021/10/05 02:40:59;;;;;;;;;;;;;;;28.16;20.00;95072.94;4997769;28;19914;-47
2021/10/05 02:43:25;;;;;;;;;;;;;;;27.93;19.83;95080.56;4997258;28;20424;-45
2021/10/05 02:45:52;;;;;;;;;;;;;;;27.84;20.40;95078.22;4997608;28;19925;-48
2021/10/05 02:48:19;;;;;;;;;;;;;;;28.05;20.09;95077.50;4996434;28;20293;-44
2021/10/05 02:50:46;;;;;;;;;;;;;;;27.80;19.89;95076.66;4998637;28;19925;-46
2021/10/05 02:53:13;;;;;;;;;;;;;;;28.22;19.62;95078.69;4997160;28;20241;-45
2021/10/05 02:55:40;;;;;;;;;;;;;;;27.92;19.98;95079.78;5005374;28;19917;-45
2021/10/05 02:58:07;;;;;;;;;;;;;;;28.08;19.57;95076.75;5004539;28;19933;-45
2021/10/05 03:00:34;;;;;;;;;;;;;;;27.64;20.05;95069.72;4997578;28;19918;-44
2021/10/05 03:03:01;;;;;;;;;;;;;;;27.56;19.90;95078.84;4996992;28;19936;-45
2021/10/05 03:05:28;;;;;;;;;;;;;;;27.85;19.68;95073.63;4996619;28;19926;-46
2021/10/05 03:07:54;;;;;;;;;;;;;;;28.17;19.31;95077.16;4996932;28;19921;-46
2021/10/05 03:10:23;;;;;;;;;;;;;;;28.14;19.42;95075.25;4997281;28;19914;-45
2021/10/05 03:12:49;;;;;;;;;;;;;;;28.19;19.34;95077.56;4996157;28;19926;-45
2021/10/05 03:15:16;;;;;;;;;;;;;;;27.84;19.61;95072.84;4997084;28;19914;-45
2021/10/05 03:17:43;;;;;;;;;;;;;;;27.94;19.77;95080.19;4996064;28;20372;-45
2021/10/05 03:20:10;;;;;;;;;;;;;;;27.91;19.40;95082.88;5003215;28;19920;-45
2021/10/05 03:22:37;;;;;;;;;;;;;;;27.47;20.19;95081.13;5004855;28;19917;-45
2021/10/05 03:25:04;;;;;;;;;;;;;;;27.70;19.72;95083.56;4998657;28;19924;-44
2021/10/05 03:27:32;;;;;;;;;;;;;;;27.99;19.38;95089.00;5010252;28;19914;-44
2021/10/05 03:29:58;;;;;;;;;;;;;;;27.54;20.00;95081.16;4996808;28;19925;-46
2021/10/05 03:32:26;;;;;;;;;;;;;;;27.90;19.21;95092.06;4996377;28;19925;-47
2021/10/05 03:34:52;;;;;;;;;;;;;;;27.97;19.37;95084.03;4996699;28;20570;-44
2021/10/05 03:37:19;;;;;;;;;;;;;;;28.16;19.40;95089.06;4996154;28;19918;-45
2021/10/05 03:39:46;;;;;;;;;;;;;;;27.83;19.56;95086.66;4996636;28;19918;-44
2021/10/05 03:42:13;;;;;;;;;;;;;;;27.74;20.05;95089.69;4996443;28;19925;-44
2021/10/05 03:44:39;;;;;;;;;;;;;;;27.47;19.95;95091.88;4995899;28;19922;-45
2021/10/05 03:47:06;;;;;;;;;;;;;;;27.74;19.37;95089.69;4996224;28;19914;-46
2021/10/05 03:49:33;;;;;;;;;;;;;;;27.74;19.71;95088.94;4997165;28;19917;-45
2021/10/05 03:52:00;;;;;;;;;;;;;;;27.95;19.37;95089.78;5010216;28;19926;-46
2021/10/05 03:54:27;;;;;;;;;;;;;;;28.15;18.99;95084.84;4996317;28;19918;-46
2021/10/05 03:56:54;;;;;;;;;;;;;;;27.79;19.64;95086.66;5011397;28;19917;-45
2021/10/05 03:59:20;;;;;;;;;;;;;;;27.49;19.70;95089.56;4995994;28;19925;-44
2021/10/05 04:01:47;;;;;;;;;;;;;;;27.72;19.52;95092.00;4994807;28;19914;-47
2021/10/05 04:04:14;;;;;;;;;;;;;;;27.40;20.06;95091.84;4995830;28;19924;-44
2021/10/05 04:06:41;;;;;;;;;;;;;;;27.67;19.77;95099.66;4996022;28;19924;-44
2021/10/05 04:09:08;;;;;;;;;;;;;;;27.77;19.27;95096.22;4995134;28;19921;-44
2021/10/05 04:11:35;;;;;;;;;;;;;;;27.68;19.52;95090.44;4995380;28;19922;-44
2021/10/05 04:14:02;;;;;;;;;;;;;;;28.19;19.14;95088.31;4990772;28;19914;-45
2021/10/05 04:16:29;;;;;;;;;;;;;;;27.90;19.12;95100.13;4995370;28;19914;-45
2021/10/05 04:18:55;;;;;;;;;;;;;;;27.94;19.39;95103.59;4995754;28;19921;-45
2021/10/05 04:21:22;;;;;;;;;;;;;;;27.03;20.47;95095.44;4993992;28;20293;-45
2021/10/05 04:23:49;;;;;;;;;;;;;;;28.86;19.10;95103.75;4988686;28;19926;-45
2021/10/05 04:26:16;;;;;;;;;;;;;;;30.30;17.83;95099.50;4992365;28;19920;-45
2021/10/05 04:28:43;;;;;;;;;;;;;;;31.35;16.80;95079.38;4986473;28;20229;-54
2021/10/05 04:31:25;;;;;;;;;;;;;;;32.67;16.38;95091.97;4986108;28;20249;-43
2021/10/05 04:33:52;;;;;;;;;;;;;;;32.31;16.39;95089.81;4991350;28;20232;-52
2021/10/05 04:36:19;;;;;;;;;;;;;;;34.36;15.71;95096.63;4991751;28;19914;-51
2021/10/05 04:38:45;;;;;;;;;;;;;;;34.67;14.32;95108.69;4981306;28;19921;-50
2021/10/05 04:41:12;;;;;;;;;;;;;;;32.79;15.68;95113.06;4985755;28;19917;-49
2021/10/05 04:43:39;;;;;;;;;;;;;;;32.03;16.26;95114.53;4976042;28;19926;-53
2021/10/05 04:46:06;;;;;;;;;;;;;;;31.91;16.24;95115.81;4997141;28;19920;-52
2021/10/05 04:48:33;;;;;;;;;;;;;;;31.67;16.63;95123.00;5007338;28;19925;-49
2021/10/05 04:50:59;;;;;;;;;;;;;;;31.43;16.60;95124.81;5003244;28;20210;-51
2021/10/05 04:53:26;;;;;;;;;;;;;;;31.57;16.46;95123.91;4978213;28;19929;-50
2021/10/05 04:55:53;;;;;;;;;;;;;;;31.35;16.27;95128.00;4984303;28;19917;-50
2021/10/05 04:58:20;;;;;;;;;;;;;;;31.11;16.53;95125.09;5005345;28;19928;-52
2021/10/05 05:00:47;;;;;;;;;;;;;;;31.05;16.33;95128.66;4994380;28;19914;-52
2021/10/05 05:03:15;;;;;;;;;;;;;;;30.96;16.41;95137.19;4995062;28;19918;-52
2021/10/05 05:05:42;;;;;;;;;;;;;;;30.75;16.80;95140.06;4995404;28;19913;-50
2021/10/05 05:08:08;;;;;;;;;;;;;;;30.64;17.08;95137.44;4995407;28;19924;-51
2021/10/05 05:10:35;;;;;;;;;;;;;;;30.76;16.99;95136.22;4994781;28;19929;-49
2021/10/05 05:13:02;;;;;;;;;;;;;;;30.98;16.64;95143.75;4994917;28;20331;-51
2021/10/05 05:15:29;;;;;;;;;;;;;;;30.85;16.73;95139.22;4995273;28;19949;-49
2021/10/05 05:17:56;;;;;;;;;;;;;;;30.83;16.90;95147.72;4994839;28;19925;-50
2021/10/05 05:20:22;;;;;;;;;;;;;;;30.96;16.81;95147.97;4997862;28;20308;-50
2021/10/05 05:22:50;;;;;;;;;;;;;;;30.97;16.85;95149.53;4994370;28;19929;-51
2021/10/05 05:25:17;;;;;;;;;;;;;;;31.13;16.82;95151.72;4995322;28;20339;-49
2021/10/05 05:27:44;;;;;;;;;;;;;;;31.05;16.98;95159.09;5012784;28;19947;-50
2021/10/05 05:30:10;;;;;;;;;;;;;;;31.52;16.64;95157.53;5011804;28;19972;-49
2021/10/05 05:32:37;;;;;;;;;;;;;;;31.45;16.49;95159.53;4994974;28;19972;-50
2021/10/05 05:35:04;;;;;;;;;;;;;;;31.78;16.19;95166.94;4995276;28;19921;-50
2021/10/05 05:37:31;;;;;;;;;;;;;;;31.71;16.22;95161.59;4994926;28;19917;-51
2021/10/05 05:39:58;;;;;;;;;;;;;;;31.87;16.47;95156.41;4994571;28;19918;-50
2021/10/05 05:42:25;;;;;;;;;;;;;;;32.22;15.58;95159.84;4994981;28;20220;-50
2021/10/05 05:44:52;;;;;;;;;;;;;;;32.13;15.57;95152.22;4995163;28;19925;-51
2021/10/05 05:47:19;;;;;;;;;;;;;;;32.40;15.29;95155.00;4995011;28;19918;-54
2021/10/05 05:49:46;;;;;;;;;;;;;;;32.45;15.42;95153.75;4997087;28;20213;-52
2021/10/05 05:52:12;;;;;;;;;;;;;;;32.92;15.35;95153.88;4991949;28;19933;-51
2021/10/05 05:54:39;;;;;;;;;;;;;;;32.82;15.13;95152.88;4975461;28;19918;-52
2021/10/05 05:57:06;;;;;;;;;;;;;;;32.75;15.25;95158.34;4997594;28;19917;-50
2021/10/05 05:59:33;;;;;;;;;;;;;;;33.14;15.06;95159.72;5014356;28;19920;-50
2021/10/05 06:02:00;;;;;;;;;;;;;;;33.34;14.65;95158.63;4997262;28;19986;-52
2021/10/05 06:04:26;;;;;;;;;;;;;;;33.41;15.03;95157.72;4982873;28;19914;-51
2021/10/05 06:06:53;;;;;;;;;;;;;;;33.36;15.16;95160.91;4975216;28;19914;-52
2021/10/05 06:09:20;;;;;;;;;;;;;;;33.70;14.58;95158.72;4975203;28;19918;-54
2021/10/05 06:11:49;;;;;;;;;;;;;;;32.60;15.84;95160.53;4989275;28;19922;-52
2021/10/05 06:14:16;;;;;;;;;;;;;;;32.69;15.72;95162.69;4994594;28;19925;-50
2021/10/05 06:16:43;;;;;;;;;;;;;;;32.63;15.48;95161.63;4994519;28;19918;-51
2021/10/05 06:19:10;;;;;;;;;;;;;;;32.51;16.07;95163.72;4994607;28;19918;-52
2021/10/05 06:21:37;;;;;;;;;;;;;;;33.28;15.40;95159.47;4998732;28;19918;-50
2021/10/05 06:24:04;;;;;;;;;;;;;;;33.39;14.96;95160.09;4995481;28;19918;-54
2021/10/05 06:26:30;;;;;;;;;;;;;;;33.70;14.94;95169.56;4996461;28;19921;-57
2021/10/05 06:28:57;;;;;;;;;;;;;;;34.03;14.35;95169.75;4978653;28;19918;-53
2021/10/05 06:31:24;;;;;;;;;;;;;;;34.26;14.42;95172.38;4995583;28;20244;-52
2021/10/05 06:33:51;;;;;;;;;;;;;;;33.24;15.35;95161.47;4997877;28;20305;-50
2021/10/05 06:36:18;;;;;;;;;;;;;;;34.73;13.81;95166.72;4997594;28;19921;-49
2021/10/05 06:38:45;;;;;;;;;;;;;;;35.17;13.66;95167.28;4996751;28;19981;-54
2021/10/05 06:41:11;;;;;;;;;;;;;;;35.03;13.61;95164.88;4986563;28;19925;-50
2021/10/05 06:43:38;;;;;;;;;;;;;;;34.98;13.53;95149.09;4997232;28;19924;-51
2021/10/05 06:46:05;;;;;;;;;;;;;;;35.02;13.44;95153.25;4997575;28;19944;-49
2021/10/05 06:48:32;;;;;;;;;;;;;;;35.72;13.53;95168.22;4997632;28;20293;-53
2021/10/05 06:50:59;;;;;;;;;;;;;;;35.11;13.83;95152.66;5002743;28;20293;-53
2021/10/05 06:53:27;;;;;;;;;;;;;;;36.10;13.16;95154.72;4996684;28;19929;-50
2021/10/05 06:55:54;;;;;;;;;;;;;;;36.23;13.14;95152.03;4997583;28;19918;-50
2021/10/05 06:58:20;;;;;;;;;;;;;;;36.69;12.77;95145.97;5016364;28;19917;-52
2021/10/05 07:00:47;;;;;;;;;;;;;;;36.35;13.01;95143.16;5011669;28;19914;-51
2021/10/05 07:03:14;;;;;;;;;;;;;;;36.69;12.78;95140.53;4984688;28;19918;-50
2021/10/05 07:05:41;;;;;;;;;;;;;;;36.22;13.16;95140.41;4977990;28;19929;-54
2021/10/05 07:08:08;;;;;;;;;;;;;;;36.68;12.74;95144.47;4978048;28;19918;-53
2021/10/05 07:10:36;;;;;;;;;;;;;;;36.98;12.34;95145.13;4980893;28;19921;-53
2021/10/05 07:13:02;;;;;;;;;;;;;;;37.02;12.52;95141.09;4997327;28;20233;-54
2021/10/05 07:15:29;;;;;;;;;;;;;;;37.00;12.61;95148.19;4997595;28;19922;-51
2021/10/05 07:17:56;;;;;;;;;;;;;;;37.88;11.68;95144.41;4970726;28;19914;-52
2021/10/05 07:20:24;;;;;;;;;;;;;;;37.43;12.16;95146.75;4992862;28;19921;-52
2021/10/05 07:22:50;;;;;;;;;;;;;;;38.02;12.03;95142.41;4997403;28;19928;-50
2021/10/05 07:25:17;;;;;;;;;;;;;;;37.83;11.90;95145.00;4997580;28;19917;-52
2021/10/05 07:27:50;;;;;;;;;;;;;;;38.05;11.35;95153.19;5008754;28;20296;-53
2021/10/05 07:30:18;;;;;;;;;;;;;;;38.31;11.61;95153.03;5017053;28;19913;-52
2021/10/05 07:32:44;;;;;;;;;;;;;;;38.32;11.91;95158.06;4996951;28;19922;-51
2021/10/05 07:35:11;;;;;;;;;;;;;;;38.08;12.29;95156.97;4996906;28;20279;-52
2021/10/05 07:37:38;;;;;;;;;;;;;;;38.67;11.70;95152.47;4996049;28;19925;-50
2021/10/05 07:40:05;;;;;;;;;;;;;;;38.96;11.20;95155.59;4988936;28;19918;-51
2021/10/05 07:42:32;;;;;;;;;;;;;;;38.98;11.32;95155.88;4993959;28;19914;-51
2021/10/05 07:44:59;;;;;;;;;;;;;;;38.55;11.36;95149.38;4996894;28;20232;-50
2021/10/05 07:47:26;;;;;;;;;;;;;;;39.21;11.08;95162.81;4996678;28;19918;-49
2021/10/05 07:49:53;;;;;;;;;;;;;;;38.77;11.32;95145.81;4982594;28;19921;-51
2021/10/05 07:52:20;;;;;;;;;;;;;;;39.60;10.92;95146.78;4999614;28;19933;-51
2021/10/05 07:54:47;;;;;;;;;;;;;;;38.99;11.19;95143.75;4996719;28;19913;-50
2021/10/05 07:57:14;;;;;;;;;;;;;;;38.30;11.56;95137.88;5003460;28;19913;-53
2021/10/05 07:59:41;;;;;;;;;;;;;;;37.88;12.93;95138.97;5015148;28;20232;-53
2021/10/05 08:02:08;;;;;;;;;;;;;;;37.90;12.96;95152.91;5001902;28;19921;-54
2021/10/05 08:04:35;;;;;;;;;;;;;;;37.82;12.50;95148.19;4980616;28;19918;-52
2021/10/05 08:07:01;;;;;;;;;;;;;;;37.78;12.58;95144.81;4976241;28;19914;-53
2021/10/05 08:09:28;;;;;;;;;;;;;;;37.66;12.87;95138.16;4976961;28;19914;-52
2021/10/05 08:11:55;;;;;;;;;;;;;;;37.34;12.75;95140.03;4988511;28;19921;-51
2021/10/05 08:14:22;;;;;;;;;;;;;;;37.49;12.96;95139.56;4996082;28;19917;-51
2021/10/05 08:16:49;;;;;;;;;;;;;;;37.53;13.04;95148.38;4996239;28;19913;-51
2021/10/05 08:19:15;;;;;;;;;;;;;;;37.86;12.61;95141.38;4996027;28;19921;-51
2021/10/05 08:21:42;;;;;;;;;;;;;;;37.74;12.77;95144.94;5004121;28;19917;-51
2021/10/05 08:24:09;;;;;;;;;;;;;;;38.35;12.61;95142.75;4995462;28;20214;-51
2021/10/05 08:26:36;;;;;;;;;;;;;;;38.27;12.99;95145.00;4996450;28;19917;-53
2021/10/05 08:29:03;;;;;;;;;;;;;;;38.55;12.52;95151.34;5015490;28;20232;-53
2021/10/05 08:31:30;;;;;;;;;;;;;;;38.07;12.53;95155.47;5006911;28;19914;-52
2021/10/05 08:33:57;;;;;;;;;;;;;;;37.70;12.81;95133.34;4995103;28;19914;-53
2021/10/05 08:36:24;;;;;;;;;;;;;;;37.64;12.37;95140.59;4995794;28;19913;-52
2021/10/05 08:38:51;;;;;;;;;;;;;;;37.28;12.81;95130.91;4995849;28;19913;-54
2021/10/05 08:41:18;;;;;;;;;;;;;;;37.90;12.31;95131.09;4995651;28;19918;-50
2021/10/05 08:43:45;;;;;;;;;;;;;;;37.64;12.49;95130.44;4995603;28;19918;-56
2021/10/05 08:46:11;;;;;;;;;;;;;;;37.50;13.19;95132.91;4995220;28;20301;-51
2021/10/05 08:48:38;;;;;;;;;;;;;;;38.04;12.21;95137.25;4995747;28;19918;-50
2021/10/05 08:51:06;;;;;;;;;;;;;;;37.91;12.72;95135.34;4987129;28;19917;-51
2021/10/05 08:53:37;;;;;;;;;;;;;;;38.00;12.37;95123.75;4977864;28;19926;-54
2021/10/05 08:56:05;;;;;;;;;;;;;;;37.58;12.64;95118.56;4995124;28;20324;-53
2021/10/05 08:58:31;;;;;;;;;;;;;;;37.53;12.55;95118.38;5010259;28;20350;-52
2021/10/05 09:01:12;;;;;;;;;;;;;;;37.93;12.06;95113.06;5011747;28;19922;-52
2021/10/05 09:03:46;;;;;;;;;;;;;;;37.92;12.27;95128.69;4994867;28;19924;-51
2021/10/05 09:06:13;;;;;;;;;;;;;;;38.26;12.43;95110.72;4995206;28;19914;-53
2021/10/05 09:08:41;;;;;;;;;;;;;;;37.32;12.76;95109.75;4994591;28;19913;-52
2021/10/05 09:11:09;;;;;;;;;;;;;;;38.03;11.96;95106.47;4994944;28;19914;-51
2021/10/05 09:13:39;;;;;;;;;;;;;;;38.17;12.50;95107.94;4994812;28;19929;-52
2021/10/05 09:16:22;;;;;;;;;;;;;;;38.95;11.67;95091.22;4977340;28;19920;-44
2021/10/05 09:19:01;;;;;;;;;;;;;;;39.24;11.93;95106.44;4975709;28;19925;-46
2021/10/05 09:21:33;;;;;;;;;;;;;;;38.97;12.18;95105.19;5002422;28;20284;-45
2021/10/05 09:24:01;;;;;;;;;;;;;;;38.46;11.91;95105.63;4994881;28;19918;-47
2021/10/05 09:26:34;;;;;;;;;;;;;;;39.02;11.93;95096.38;4993841;28;19918;-46
2021/10/05 09:29:14;;;;;;;;;;;;;;;38.39;12.16;95094.22;5012389;28;20331;-47
2021/10/05 09:31:54;;;;;;;;;;;;;;;38.49;11.75;95093.78;5006480;28;19948;-46
2021/10/05 09:34:31;;;;;;;;;;;;;;;38.77;12.23;95091.16;4994775;28;19920;-45
2021/10/05 09:37:04;;;;;;;;;;;;;;;38.68;11.99;95094.66;4994869;28;19948;-48
2021/10/05 09:39:35;;;;;;;;;;;;;;;38.56;11.89;95096.25;4994240;28;19984;-45
2021/10/05 09:42:02;;;;;;;;;;;;;;;39.05;11.93;95092.75;4994715;28;20328;-49
2021/10/05 09:44:29;;;;;;;;;;;;;;;39.13;11.60;95088.53;4994703;28;20293;-48
2021/10/05 09:46:55;;;;;;;;;;;;;;;38.76;11.69;95095.13;4994782;28;19913;-46
2021/10/05 09:49:24;;;;;;;;;;;;;;;38.28;12.31;95093.88;4994496;28;19922;-46
2021/10/05 09:52:21;;;;;;;;;;;;;;;38.52;11.83;95090.19;5001271;28;19930;-46
2021/10/05 09:54:48;;;;;;;;;;;;;;;38.36;11.89;95090.44;4994564;28;19924;-47
2021/10/05 09:57:15;;;;;;;;;;;;;;;38.38;11.71;95088.00;4996304;28;19917;-46
2021/10/05 09:59:45;;;;;;;;;;;;;;;39.00;11.43;95082.41;5001060;28;19924;-54
2021/10/05 10:02:12;;;;;;;;;;;;;;;38.86;11.58;95093.94;5006891;28;19921;-45
2021/10/05 10:04:39;;;;;;;;;;;;;;;38.41;11.53;95087.09;4980848;28;19913;-46
2021/10/05 10:07:06;;;;;;;;;;;;;;;38.43;11.96;95089.38;4998307;28;19925;-46
2021/10/05 10:09:33;;;;;;;;;;;;;;;38.74;11.62;95078.41;4998471;28;19920;-45
2021/10/05 10:12:00;;;;;;;;;;;;;;;38.89;11.97;95084.06;4980733;28;19928;-45
2021/10/05 10:14:27;;;;;;;;;;;;;;;38.90;11.82;95082.84;4980735;28;19913;-46
2021/10/05 10:16:54;;;;;;;;;;;;;;;39.21;11.79;95074.56;4997078;28;19925;-45
2021/10/05 10:19:24;;;;;;;;;;;;;;;39.11;11.76;95088.22;4998033;28;19924;-44
2021/10/05 10:21:51;;;;;;;;;;;;;;;38.59;12.06;95082.91;5009974;28;19997;-46
2021/10/05 10:24:19;;;;;;;;;;;;;;;38.31;12.20;95082.81;4997818;28;19914;-45
2021/10/05 10:26:56;;;;;;;;;;;;;;;38.83;11.78;95079.22;4997908;28;19918;-47
2021/10/05 10:29:26;;;;;;;;;;;;;;;38.53;12.20;95064.41;5015425;28;19921;-45
2021/10/05 10:31:53;;;;;;;;;;;;;;;39.01;12.00;95062.06;5009744;28;19920;-45
2021/10/05 10:34:21;;;;;;;;;;;;;;;38.83;11.77;95062.06;4997638;28;19918;-47
2021/10/05 10:36:49;;;;;;;;;;;;;;;38.76;11.67;95062.34;4997778;28;19913;-44
2021/10/05 10:39:17;;;;;;;;;;;;;;;38.41;12.09;95062.53;4997800;28;19917;-45
2021/10/05 10:41:53;;;;;;;;;;;;;;;39.07;11.83;95062.28;4997489;28;20328;-44
2021/10/05 10:44:27;;;;;;;;;;;;;;;39.15;11.60;95050.56;4997551;28;19918;-45
2021/10/05 10:47:04;;;;;;;;;;;;;;;39.10;11.87;95053.91;4997388;28;19917;-50
2021/10/05 10:49:30;;;;;;;;;;;;;;;39.09;11.54;95041.47;4998340;28;19917;-45
2021/10/05 10:51:57;;;;;;;;;;;;;;;38.45;11.62;95049.50;5009577;28;20596;-45
2021/10/05 10:54:27;;;;;;;;;;;;;;;38.32;12.04;95043.41;4997549;28;19924;-46
2021/10/05 10:56:59;;;;;;;;;;;;;;;38.66;11.71;95045.19;4997647;28;19914;-45
2021/10/05 10:59:26;;;;;;;;;;;;;;;38.83;11.73;95048.41;5014180;28;20304;-46
2021/10/05 11:01:53;;;;;;;;;;;;;;;38.71;11.81;95046.53;5010432;28;19913;-45
2021/10/05 11:04:20;;;;;;;;;;;;;;;38.76;11.86;95045.94;4997357;28;19924;-47
2021/10/05 11:06:48;;;;;;;;;;;;;;;37.91;11.49;95045.31;4997460;28;19917;-46
2021/10/05 11:09:15;;;;;;;;;;;;;;;38.51;11.59;95036.75;4996991;28;19921;-44
2021/10/05 11:11:43;;;;;;;;;;;;;;;38.52;11.36;95035.56;4996990;28;19918;-44
2021/10/05 11:14:11;;;;;;;;;;;;;;;38.55;11.63;95031.94;4997197;28;19918;-46
2021/10/05 11:16:38;;;;;;;;;;;;;;;38.17;11.83;95028.78;4997210;28;20206;-46
2021/10/05 11:19:16;;;;;;;;;;;;;;;38.25;11.63;95021.81;4997407;28;20323;-57
2021/10/05 11:21:44;;;;;;;;;;;;;;;38.03;11.29;95029.31;5010641;28;19933;-44
2021/10/05 11:24:14;;;;;;;;;;;;;;;38.65;11.29;95021.81;4996823;28;19922;-45
2021/10/05 11:26:45;;;;;;;;;;;;;;;38.13;11.95;95028.13;4997118;28;19925;-47
2021/10/05 11:29:12;;;;;;;;;;;;;;;38.06;11.37;95033.88;5010502;28;19917;-44
2021/10/05 11:31:43;;;;;;;;;;;;;;;38.76;11.35;95029.56;4995246;28;19918;-45
2021/10/05 11:34:09;;;;;;;;;;;;;;;37.94;11.90;95022.59;4996958;28;19920;-44
2021/10/05 11:36:36;;;;;;;;;;;;;;;38.61;12.00;95014.94;4996641;28;19925;-47
2021/10/05 11:39:04;;;;;;;;;;;;;;;38.56;12.20;95006.13;4996229;28;19914;-58
2021/10/05 11:41:35;;;;;;;;;;;;;;;38.33;11.43;95009.41;4996566;28;19924;-50
2021/10/05 11:44:11;;;;;;;;;;;;;;;37.85;11.91;95017.09;4996412;28;19920;-50
2021/10/05 11:46:39;;;;;;;;;;;;;;;37.84;11.88;95012.84;4996815;28;19921;-51
2021/10/05 11:49:06;;;;;;;;;;;;;;;37.50;12.18;95021.13;4996765;28;19928;-50
2021/10/05 11:51:40;;;;;;;;;;;;;;;37.57;11.90;95015.41;4993773;28;19913;-49
2021/10/05 11:54:15;;;;;;;;;;;;;;;37.54;12.15;95010.84;4993651;28;19921;-51
2021/10/05 11:56:42;;;;;;;;;;;;;;;37.80;11.75;95012.22;4996225;28;19918;-50
2021/10/05 11:59:09;;;;;;;;;;;;;;;37.75;11.89;95003.88;5007226;28;19917;-50
2021/10/05 12:01:36;;;;;;;;;;;;;;;37.77;12.30;95007.66;4995690;28;20245;-49
2021/10/05 12:04:07;;;;;;;;;;;;;;;37.47;12.33;94997.44;4995891;28;19924;-49
2021/10/05 12:06:39;;;;;;;;;;;;;;;37.42;12.27;94989.84;4978499;28;20237;-51
2021/10/05 12:09:07;;;;;;;;;;;;;;;37.48;12.32;94990.81;4996313;28;19918;-54
2021/10/05 12:11:38;;;;;;;;;;;;;;;37.40;12.19;94989.53;4995821;28;19929;-49
2021/10/05 12:14:05;;;;;;;;;;;;;;;37.47;12.79;94989.25;4995760;28;19918;-52
2021/10/05 12:16:31;;;;;;;;;;;;;;;37.45;12.49;94988.94;4996001;28;19918;-49
2021/10/05 12:18:59;;;;;;;;;;;;;;;37.47;12.43;94989.25;4996180;28;19914;-50
2021/10/05 12:21:26;;;;;;;;;;;;;;;37.54;12.55;94995.25;5010527;28;19917;-50
2021/10/05 12:23:53;;;;;;;;;;;;;;;37.59;12.18;94986.47;4995822;28;19922;-49
2021/10/05 12:26:20;;;;;;;;;;;;;;;37.57;12.59;94988.13;4995738;28;19914;-54
2021/10/05 12:28:54;;;;;;;;;;;;;;;37.29;12.99;94979.78;5002818;28;19981;-51
2021/10/05 12:31:20;;;;;;;;;;;;;;;37.36;12.70;94978.75;5015357;28;19913;-50
2021/10/05 12:33:57;;;;;;;;;;;;;;;37.06;12.87;95004.72;4995641;28;19918;-52
2021/10/05 12:36:24;;;;;;;;;;;;;;;37.40;12.96;94990.28;4995569;28;19913;-50
2021/10/05 12:38:52;;;;;;;;;;;;;;;37.46;12.26;94983.06;4995671;28;19917;-49
2021/10/05 12:41:18;;;;;;;;;;;;;;;37.24;12.60;94983.06;4995533;28;19928;-49
2021/10/05 12:43:47;;;;;;;;;;;;;;;37.47;12.44;94972.91;4994965;28;20322;-49
2021/10/05 12:46:18;;;;;;;;;;;;;;;37.37;12.57;94960.44;4995321;28;19913;-49
2021/10/05 12:48:57;;;;;;;;;;;;;;;37.23;13.05;94972.59;4995502;28;19917;-50
2021/10/05 12:51:25;;;;;;;;;;;;;;;37.15;12.67;94977.53;5011290;28;19917;-51
2021/10/05 12:53:55;;;;;;;;;;;;;;;37.15;13.06;94969.34;4995722;28;19925;-49